Time;durP1;ratioP1;P1;durP2;ratioP2;P2;SDS_P1;SDS_P2;PMS_P1;PMS_P2;Temp;Humidity;BMP_temperature;BMP_pressure;BME280_temperature;BME280_humidity;BME280_pressure;Samples;Min_cycle;Max_cycle;Signal;HPM_P1;HPM_P2
2023/08/23 00:01:23;;;;;;;;;1.75;1.75;;;;;;;;5043488;28;45341;-88
2023/08/23 00:03:48;;;;;;;;;1.75;1.50;;;;;;;;5044146;28;45391;-88
2023/08/23 00:06:13;;;;;;;;;1.00;1.00;;;;;;;;5067313;28;45351;-88
2023/08/23 00:08:40;;;;;;;;;2.25;1.25;;;;;;;;5063500;28;45315;-87
2023/08/23 00:11:06;;;;;;;;;2.00;1.00;;;;;;;;5062760;28;45402;-88
2023/08/23 00:13:32;;;;;;;;;1.00;1.00;;;;;;;;5044753;28;44888;-88
2023/08/23 00:15:57;;;;;;;;;1.00;1.00;;;;;;;;5044560;28;46886;-89
2023/08/23 00:18:22;;;;;;;;;1.00;1.00;;;;;;;;5044480;28;45441;-86
2023/08/23 00:20:47;;;;;;;;;1.00;1.00;;;;;;;;5029080;28;45357;-88
2023/08/23 00:23:13;;;;;;;;;2.00;2.00;;;;;;;;5061257;28;45402;-87
2023/08/23 00:25:38;;;;;;;;;1.75;1.00;;;;;;;;5059100;28;45363;-87
2023/08/23 00:28:03;;;;;;;;;2.75;1.50;;;;;;;;5060578;28;45418;-87
2023/08/23 00:30:29;;;;;;;;;4.00;1.00;;;;;;;;5059917;28;45391;-88
2023/08/23 00:32:54;;;;;;;;;0.75;0.75;;;;;;;;5061265;28;45347;-85
2023/08/23 00:35:20;;;;;;;;;2.75;2.00;;;;;;;;5018752;28;47505;-87
2023/08/23 00:37:45;;;;;;;;;1.00;1.00;;;;;;;;5058934;28;45338;-87
2023/08/23 00:40:10;;;;;;;;;1.00;1.00;;;;;;;;5057985;28;45493;-86
2023/08/23 00:42:36;;;;;;;;;1.50;0.50;;;;;;;;5035516;28;46261;-87
2023/08/23 00:45:01;;;;;;;;;2.00;1.00;;;;;;;;5060933;28;45586;-88
2023/08/23 00:47:26;;;;;;;;;1.00;1.00;;;;;;;;5061931;28;45359;-87
2023/08/23 00:49:52;;;;;;;;;2.00;1.00;;;;;;;;5041052;28;45700;-87
2023/08/23 00:52:17;;;;;;;;;1.25;1.25;;;;;;;;5054738;28;45396;-87
2023/08/23 00:54:44;;;;;;;;;1.00;1.00;;;;;;;;5045880;28;46582;-85
2023/08/23 00:57:10;;;;;;;;;0.75;0.75;;;;;;;;5055018;28;45343;-89
2023/08/23 00:59:36;;;;;;;;;1.50;1.50;;;;;;;;5049220;28;45391;-85
2023/08/23 01:02:01;;;;;;;;;1.75;1.00;;;;;;;;5078872;28;45162;-86
2023/08/23 01:04:26;;;;;;;;;2.00;2.00;;;;;;;;5042023;28;48410;-87
2023/08/23 01:06:56;;;;;;;;;1.25;1.25;;;;;;;;5038790;28;45359;-88
2023/08/23 01:09:21;;;;;;;;;0.75;0.75;;;;;;;;5047424;28;45581;-87
2023/08/23 01:11:59;;;;;;;;;2.00;1.25;;;;;;;;5044671;28;47159;-87
2023/08/23 01:14:36;;;;;;;;;1.00;1.00;;;;;;;;5043803;28;46185;-87
2023/08/23 01:17:02;;;;;;;;;1.00;1.00;;;;;;;;5062639;28;45370;-87
2023/08/23 01:19:41;;;;;;;;;1.75;1.00;;;;;;;;5061943;28;45532;-86
2023/08/23 01:22:09;;;;;;;;;0.00;0.00;;;;;;;;5043353;28;45980;-89
2023/08/23 01:24:35;;;;;;;;;2.00;1.00;;;;;;;;5060146;28;45467;-88
2023/08/23 01:27:00;;;;;;;;;2.00;0.50;;;;;;;;5037853;28;45412;-89
2023/08/23 01:29:25;;;;;;;;;0.75;0.75;;;;;;;;5046906;28;45448;-90
2023/08/23 01:31:53;;;;;;;;;1.25;1.25;;;;;;;;5048785;28;46949;-90
2023/08/23 01:34:23;;;;;;;;;1.25;1.00;;;;;;;;5047972;28;46711;-87
2023/08/23 01:36:49;;;;;;;;;2.50;0.25;;;;;;;;5036133;28;45434;-88
2023/08/23 01:39:15;;;;;;;;;2.00;2.00;;;;;;;;5047464;28;45468;-88
2023/08/23 01:41:41;;;;;;;;;0.50;0.50;;;;;;;;5064528;28;45541;-86
2023/08/23 01:44:06;;;;;;;;;1.00;1.00;;;;;;;;5043012;28;46814;-83
2023/08/23 01:46:33;;;;;;;;;0.75;0.75;;;;;;;;5059782;28;45705;-90
2023/08/23 01:48:59;;;;;;;;;4.00;1.00;;;;;;;;5069878;28;45440;-89
2023/08/23 01:51:24;;;;;;;;;0.75;0.50;;;;;;;;5041712;28;46204;-86
2023/08/23 01:53:50;;;;;;;;;0.50;0.50;;;;;;;;5045150;28;45954;-89
2023/08/23 01:56:15;;;;;;;;;1.00;1.00;;;;;;;;5052851;28;45739;-88
2023/08/23 01:58:40;;;;;;;;;1.00;1.00;;;;;;;;5057034;28;45374;-87
2023/08/23 02:01:06;;;;;;;;;3.50;0.00;;;;;;;;5054888;28;45625;-89
2023/08/23 02:03:31;;;;;;;;;1.50;1.00;;;;;;;;5052287;28;47020;-87
2023/08/23 02:05:57;;;;;;;;;1.75;1.25;;;;;;;;5049864;28;45525;-88
2023/08/23 02:08:22;;;;;;;;;2.00;0.50;;;;;;;;5047386;28;45889;-86
2023/08/23 02:10:47;;;;;;;;;0.50;0.50;;;;;;;;5048047;28;46975;-87
2023/08/23 02:13:12;;;;;;;;;1.00;1.00;;;;;;;;5046512;28;48231;-86
2023/08/23 02:15:38;;;;;;;;;1.25;1.00;;;;;;;;5044129;28;45538;-89
2023/08/23 02:18:03;;;;;;;;;2.00;0.50;;;;;;;;5063330;28;45521;-89
2023/08/23 02:20:28;;;;;;;;;1.25;0.25;;;;;;;;5044498;28;45922;-92
2023/08/23 02:22:53;;;;;;;;;2.00;1.00;;;;;;;;5063878;28;45788;-86
2023/08/23 02:25:19;;;;;;;;;0.00;0.00;;;;;;;;5058818;28;45779;-86
2023/08/23 02:27:44;;;;;;;;;1.50;1.00;;;;;;;;5030908;28;45353;-88
2023/08/23 02:30:09;;;;;;;;;1.00;1.00;;;;;;;;5036850;28;46234;-83
2023/08/23 02:32:35;;;;;;;;;0.50;0.50;;;;;;;;5058304;28;45378;-84
2023/08/23 02:35:02;;;;;;;;;0.25;0.25;;;;;;;;5057508;28;45284;-85
2023/08/23 02:37:27;;;;;;;;;0.00;0.00;;;;;;;;5043022;28;45384;-85
2023/08/23 02:39:52;;;;;;;;;0.00;0.00;;;;;;;;5064630;28;45719;-87
2023/08/23 02:42:18;;;;;;;;;0.00;0.00;;;;;;;;5038446;28;47256;-87
2023/08/23 02:44:43;;;;;;;;;0.75;0.75;;;;;;;;5038727;28;45438;-85
2023/08/23 02:47:08;;;;;;;;;1.00;1.00;;;;;;;;5051198;28;45416;-86
2023/08/23 02:49:34;;;;;;;;;1.00;1.00;;;;;;;;5046182;28;46270;-87
2023/08/23 02:52:00;;;;;;;;;0.00;0.00;;;;;;;;5042608;28;46121;-88
2023/08/23 02:54:25;;;;;;;;;1.00;1.00;;;;;;;;5037885;28;45498;-87
2023/08/23 02:56:50;;;;;;;;;0.00;0.00;;;;;;;;5027840;28;45427;-88
2023/08/23 02:59:16;;;;;;;;;0.25;0.25;;;;;;;;5042504;28;46079;-90
2023/08/23 03:01:41;;;;;;;;;1.25;1.25;;;;;;;;5053323;28;46751;-88
2023/08/23 03:04:06;;;;;;;;;0.00;0.00;;;;;;;;5047334;28;45462;-89
2023/08/23 03:06:31;;;;;;;;;1.00;1.00;;;;;;;;5066484;28;45410;-86
2023/08/23 03:08:57;;;;;;;;;3.00;0.00;;;;;;;;5049405;28;45879;-86
2023/08/23 03:11:22;;;;;;;;;1.00;1.00;;;;;;;;5058478;28;46487;-85
2023/08/23 03:13:48;;;;;;;;;1.00;1.00;;;;;;;;5044472;28;45398;-87
2023/08/23 03:16:15;;;;;;;;;1.00;1.00;;;;;;;;5037399;28;45760;-86
2023/08/23 03:18:40;;;;;;;;;2.00;1.00;;;;;;;;5061002;28;45451;-87
2023/08/23 03:21:05;;;;;;;;;2.00;1.00;;;;;;;;5065974;28;46773;-87
2023/08/23 03:23:31;;;;;;;;;0.75;0.75;;;;;;;;5062829;28;45812;-87
2023/08/23 03:25:56;;;;;;;;;1.00;1.00;;;;;;;;5042435;28;45719;-86
2023/08/23 03:28:22;;;;;;;;;1.00;1.00;;;;;;;;5036688;28;46343;-82
2023/08/23 03:30:47;;;;;;;;;2.00;2.00;;;;;;;;5060317;28;45397;-86
2023/08/23 03:33:12;;;;;;;;;1.75;1.75;;;;;;;;5044292;28;45278;-84
2023/08/23 03:35:38;;;;;;;;;1.00;1.00;;;;;;;;5040774;28;45778;-84
2023/08/23 03:38:03;;;;;;;;;2.00;2.00;;;;;;;;5059587;28;45383;-85
2023/08/23 03:40:28;;;;;;;;;1.00;1.00;;;;;;;;5059159;28;46418;-83
2023/08/23 03:42:54;;;;;;;;;1.50;1.50;;;;;;;;5059132;28;45507;-83
2023/08/23 03:45:19;;;;;;;;;1.25;1.25;;;;;;;;5060172;28;45450;-84
2023/08/23 03:47:45;;;;;;;;;2.00;0.75;;;;;;;;5055165;28;45295;-84
2023/08/23 03:50:12;;;;;;;;;3.00;3.00;;;;;;;;5046014;28;47378;-85
2023/08/23 03:52:38;;;;;;;;;3.00;3.00;;;;;;;;5056363;28;45372;-83
2023/08/23 03:55:03;;;;;;;;;2.00;2.00;;;;;;;;5049044;28;45456;-82
2023/08/23 03:57:28;;;;;;;;;2.75;1.75;;;;;;;;5039808;28;47180;-86
2023/08/23 03:59:54;;;;;;;;;1.25;1.25;;;;;;;;5055697;28;46825;-84
2023/08/23 04:02:19;;;;;;;;;1.75;1.75;;;;;;;;5047892;28;45429;-84
2023/08/23 04:04:45;;;;;;;;;4.00;2.00;;;;;;;;5044362;28;45401;-85
2023/08/23 04:07:12;;;;;;;;;2.50;2.50;;;;;;;;5069973;28;45775;-85
2023/08/23 04:09:37;;;;;;;;;1.00;1.00;;;;;;;;5056533;28;46888;-84
2023/08/23 04:12:02;;;;;;;;;2.00;2.00;;;;;;;;5075268;28;44748;-84
2023/08/23 04:14:27;;;;;;;;;4.00;1.50;;;;;;;;5062383;28;45399;-85
2023/08/23 04:16:52;;;;;;;;;1.00;1.00;;;;;;;;5073561;28;44780;-83
2023/08/23 04:19:18;;;;;;;;;0.25;0.25;;;;;;;;5061855;28;46791;-83
2023/08/23 04:21:45;;;;;;;;;1.75;1.75;;;;;;;;5068619;28;45184;-84
2023/08/23 04:24:10;;;;;;;;;1.50;1.50;;;;;;;;5060864;28;45103;-83
2023/08/23 04:26:36;;;;;;;;;2.00;1.25;;;;;;;;5046855;28;46022;-85
2023/08/23 04:29:01;;;;;;;;;2.00;2.00;;;;;;;;5064929;28;45495;-84
2023/08/23 04:31:26;;;;;;;;;8.67;6.67;;;;;;;;5039684;28;45451;-85
2023/08/23 04:33:52;;;;;;;;;2.75;2.00;;;;;;;;5040701;28;45558;-85
2023/08/23 04:36:17;;;;;;;;;1.75;1.75;;;;;;;;5071894;28;45414;-86
2023/08/23 04:38:43;;;;;;;;;0.00;0.00;;;;;;;;5059525;28;45224;-83
2023/08/23 04:41:08;;;;;;;;;4.00;1.50;;;;;;;;5050613;28;45687;-84
2023/08/23 04:43:33;;;;;;;;;2.50;2.00;;;;;;;;5057913;28;44759;-87
2023/08/23 04:45:59;;;;;;;;;2.75;1.25;;;;;;;;5074225;28;44916;-88
2023/08/23 04:48:26;;;;;;;;;2.00;2.00;;;;;;;;5046499;28;47625;-85
2023/08/23 04:50:55;;;;;;;;;2.00;2.00;;;;;;;;5065127;28;44768;-87
2023/08/23 04:53:20;;;;;;;;;2.00;2.00;;;;;;;;5062267;28;45419;-88
2023/08/23 04:55:45;;;;;;;;;1.00;1.00;;;;;;;;5044124;28;45491;-87
2023/08/23 04:58:10;;;;;;;;;1.00;1.00;;;;;;;;5049194;28;48410;-87
2023/08/23 05:00:36;;;;;;;;;4.50;1.00;;;;;;;;5048983;28;45632;-88
2023/08/23 05:03:01;;;;;;;;;3.75;1.25;;;;;;;;5040590;28;45467;-86
2023/08/23 05:05:27;;;;;;;;;2.75;2.75;;;;;;;;5042859;28;45701;-85
2023/08/23 05:07:52;;;;;;;;;7.67;7.33;;;;;;;;5042287;28;47100;-86
2023/08/23 05:10:17;;;;;;;;;3.25;2.00;;;;;;;;5059837;28;45388;-86
2023/08/23 05:12:43;;;;;;;;;2.00;1.25;;;;;;;;5052825;28;45505;-85
2023/08/23 05:15:08;;;;;;;;;3.00;1.75;;;;;;;;5046195;28;45204;-85
2023/08/23 05:17:34;;;;;;;;;6.00;2.00;;;;;;;;5050753;28;48172;-87
2023/08/23 05:19:59;;;;;;;;;2.00;2.00;;;;;;;;5048639;28;45463;-88
2023/08/23 05:22:24;;;;;;;;;2.00;2.00;;;;;;;;5037434;28;45439;-80
2023/08/23 05:24:49;;;;;;;;;6.00;2.00;;;;;;;;5040383;28;46174;-81
2023/08/23 05:27:15;;;;;;;;;2.00;1.25;;;;;;;;5047244;28;46813;-81
2023/08/23 05:29:41;;;;;;;;;2.00;2.00;;;;;;;;5052861;28;45377;-80
2023/08/23 05:32:07;;;;;;;;;2.00;2.00;;;;;;;;5045459;28;45355;-81
2023/08/23 05:34:32;;;;;;;;;1.00;1.00;;;;;;;;5068429;28;45548;-79
2023/08/23 05:36:57;;;;;;;;;3.50;2.00;;;;;;;;5051571;28;47187;-81
2023/08/23 05:39:23;;;;;;;;;4.00;2.00;;;;;;;;5038382;28;45419;-81
2023/08/23 05:41:48;;;;;;;;;3.00;2.00;;;;;;;;5061623;28;45738;-80
2023/08/23 05:44:13;;;;;;;;;2.50;2.00;;;;;;;;5058834;28;45273;-81
2023/08/23 05:46:38;;;;;;;;;1.50;1.50;;;;;;;;5041165;28;46303;-81
2023/08/23 05:49:04;;;;;;;;;2.00;0.50;;;;;;;;5059333;28;45694;-81
2023/08/23 05:51:29;;;;;;;;;3.00;1.75;;;;;;;;5058683;28;45720;-80
2023/08/23 05:53:54;;;;;;;;;2.00;0.75;;;;;;;;5058732;28;45729;-81
2023/08/23 05:56:19;;;;;;;;;2.25;2.25;;;;;;;;5027168;28;45575;-80
2023/08/23 05:58:45;;;;;;;;;2.75;2.75;;;;;;;;5058370;28;45388;-80
2023/08/23 06:01:10;;;;;;;;;4.25;1.50;;;;;;;;5061620;28;45847;-80
2023/08/23 06:03:35;;;;;;;;;2.00;2.00;;;;;;;;5057409;28;45462;-82
2023/08/23 06:06:00;;;;;;;;;10.00;7.25;;;;;;;;5057339;28;45513;-81
2023/08/23 06:08:26;;;;;;;;;3.50;1.00;;;;;;;;5057054;28;45427;-81
2023/08/23 06:10:51;;;;;;;;;3.25;2.00;;;;;;;;5056613;28;45481;-80
2023/08/23 06:13:16;;;;;;;;;1.00;1.00;;;;;;;;5057006;28;45774;-82
2023/08/23 06:15:41;;;;;;;;;3.50;3.00;;;;;;;;5058509;28;45446;-81
2023/08/23 06:18:07;;;;;;;;;3.00;2.00;;;;;;;;5058219;28;45822;-80
2023/08/23 06:20:32;;;;;;;;;2.00;1.00;;;;;;;;5043786;28;45788;-80
2023/08/23 06:22:58;;;;;;;;;1.00;0.00;;;;;;;;5057843;28;45370;-82
2023/08/23 06:25:24;;;;;;;;;2.50;1.50;;;;;;;;5055070;28;45414;-81
2023/08/23 06:27:49;;;;;;;;;1.50;1.00;;;;;;;;5046074;28;45418;-80
2023/08/23 06:30:17;;;;;;;;;0.75;0.75;;;;;;;;5056440;28;45505;-81
2023/08/23 06:32:46;;;;;;;;;1.50;1.50;;;;;;;;5038958;28;45740;-82
2023/08/23 06:35:12;;;;;;;;;4.00;1.00;;;;;;;;5047490;28;47162;-81
2023/08/23 06:37:37;;;;;;;;;2.50;2.00;;;;;;;;5056905;28;45349;-81
2023/08/23 06:40:03;;;;;;;;;3.50;1.75;;;;;;;;5056329;28;45245;-80
2023/08/23 06:42:28;;;;;;;;;1.25;1.25;;;;;;;;5037995;28;45826;-81
2023/08/23 06:44:54;;;;;;;;;5.50;4.00;;;;;;;;5056210;28;46226;-80
2023/08/23 06:47:19;;;;;;;;;3.25;2.00;;;;;;;;5047541;28;45634;-82
2023/08/23 06:49:44;;;;;;;;;2.75;2.75;;;;;;;;5038233;28;45758;-81
2023/08/23 06:52:09;;;;;;;;;2.50;1.75;;;;;;;;5056148;28;45691;-81
2023/08/23 06:54:35;;;;;;;;;6.25;5.00;;;;;;;;5051539;28;45382;-81
2023/08/23 06:57:00;;;;;;;;;1.25;1.25;;;;;;;;5065302;28;45489;-80
2023/08/23 06:59:25;;;;;;;;;1.00;1.00;;;;;;;;5041091;28;45316;-83
2023/08/23 07:01:50;;;;;;;;;2.50;2.50;;;;;;;;5045560;28;47150;-80
2023/08/23 07:04:16;;;;;;;;;4.00;1.00;;;;;;;;5057883;28;46220;-82
2023/08/23 07:06:41;;;;;;;;;1.75;1.00;;;;;;;;5028523;28;44965;-80
2023/08/23 07:09:06;;;;;;;;;1.75;1.00;;;;;;;;5043968;28;45412;-81
2023/08/23 07:11:32;;;;;;;;;3.50;1.75;;;;;;;;5071974;28;45366;-80
2023/08/23 07:13:57;;;;;;;;;4.75;3.75;;;;;;;;5056856;28;46088;-80
2023/08/23 07:16:22;;;;;;;;;4.50;2.50;;;;;;;;5038902;28;45865;-80
2023/08/23 07:18:47;;;;;;;;;4.75;2.25;;;;;;;;5055959;28;45399;-80
2023/08/23 07:21:13;;;;;;;;;1.00;1.00;;;;;;;;5047461;28;45538;-81
2023/08/23 07:23:38;;;;;;;;;2.00;1.50;;;;;;;;5035770;28;47000;-82
2023/08/23 07:26:04;;;;;;;;;0.50;0.25;;;;;;;;5047274;28;45415;-80
2023/08/23 07:28:29;;;;;;;;;2.25;2.00;;;;;;;;5035687;28;45416;-81
2023/08/23 07:30:57;;;;;;;;;2.50;1.50;;;;;;;;5056476;28;45423;-83
2023/08/23 07:33:25;;;;;;;;;3.25;1.50;;;;;;;;5037115;28;48055;-81
2023/08/23 07:35:58;;;;;;;;;2.25;1.25;;;;;;;;5043192;28;45416;-81
2023/08/23 07:38:23;;;;;;;;;1.00;1.00;;;;;;;;5054683;28;45485;-81
2023/08/23 07:40:48;;;;;;;;;1.00;1.00;;;;;;;;5055088;28;45467;-81
2023/08/23 07:43:13;;;;;;;;;3.25;2.00;;;;;;;;5036907;28;47194;-82
2023/08/23 07:45:39;;;;;;;;;2.50;2.50;;;;;;;;5055228;28;45823;-82
2023/08/23 07:48:04;;;;;;;;;2.00;2.00;;;;;;;;5053880;28;45447;-81
2023/08/23 07:50:29;;;;;;;;;1.00;1.00;;;;;;;;5034866;28;46014;-81
2023/08/23 07:52:55;;;;;;;;;2.25;2.25;;;;;;;;5036483;28;46046;-82
2023/08/23 07:55:20;;;;;;;;;2.00;2.00;;;;;;;;5036575;28;45460;-82
2023/08/23 07:57:45;;;;;;;;;4.50;2.00;;;;;;;;5036316;28;45705;-82
2023/08/23 08:00:11;;;;;;;;;2.00;2.00;;;;;;;;5036612;28;47214;-82
2023/08/23 08:02:37;;;;;;;;;2.00;2.00;;;;;;;;5059929;28;46248;-82
2023/08/23 08:05:03;;;;;;;;;3.75;2.00;;;;;;;;5038605;28;45478;-81
2023/08/23 08:07:29;;;;;;;;;2.25;2.25;;;;;;;;5037728;28;45441;-81
2023/08/23 08:09:54;;;;;;;;;5.00;3.00;;;;;;;;5056030;28;45655;-80
2023/08/23 08:12:19;;;;;;;;;0.50;0.50;;;;;;;;5052397;28;46231;-81
2023/08/23 08:14:45;;;;;;;;;4.00;2.25;;;;;;;;5037390;28;45483;-81
2023/08/23 08:17:10;;;;;;;;;5.25;4.25;;;;;;;;5056682;28;45415;-81
2023/08/23 08:19:35;;;;;;;;;2.75;1.75;;;;;;;;5051584;28;45580;-81
2023/08/23 08:22:01;;;;;;;;;2.25;1.00;;;;;;;;5036636;28;46277;-82
2023/08/23 08:24:27;;;;;;;;;2.00;2.00;;;;;;;;5055769;28;45426;-81
2023/08/23 08:26:52;;;;;;;;;2.00;2.00;;;;;;;;5055577;28;45902;-81
2023/08/23 08:29:17;;;;;;;;;5.00;4.00;;;;;;;;5055771;28;45573;-82
2023/08/23 08:31:42;;;;;;;;;4.75;3.75;;;;;;;;5054923;28;45575;-82
2023/08/23 08:34:08;;;;;;;;;5.50;2.00;;;;;;;;5037572;28;45462;-83
2023/08/23 08:36:34;;;;;;;;;3.00;2.00;;;;;;;;5055462;28;45507;-82
2023/08/23 08:38:59;;;;;;;;;3.75;3.25;;;;;;;;5056386;28;45690;-80
2023/08/23 08:41:25;;;;;;;;;4.75;2.00;;;;;;;;5055203;28;45683;-79
2023/08/23 08:43:50;;;;;;;;;4.50;4.00;;;;;;;;5055908;28;45409;-81
2023/08/23 08:46:15;;;;;;;;;4.75;4.00;;;;;;;;5055615;28;45479;-81
2023/08/23 08:48:41;;;;;;;;;6.50;3.50;;;;;;;;5055590;28;45774;-83
2023/08/23 08:51:09;;;;;;;;;13.25;11.25;;;;;;;;5040890;28;45474;-81
2023/08/23 08:53:34;;;;;;;;;2.00;2.00;;;;;;;;5055636;28;45882;-81
2023/08/23 08:56:00;;;;;;;;;3.50;3.50;;;;;;;;5037555;28;45415;-81
2023/08/23 08:58:26;;;;;;;;;6.25;3.00;;;;;;;;5054542;28;45778;-82
2023/08/23 09:00:52;;;;;;;;;3.75;3.50;;;;;;;;5055391;28;45742;-82
2023/08/23 09:03:18;;;;;;;;;5.25;4.25;;;;;;;;5037110;28;45481;-81
2023/08/23 09:05:45;;;;;;;;;6.00;5.25;;;;;;;;5033289;28;45702;-80
2023/08/23 09:08:10;;;;;;;;;5.00;4.00;;;;;;;;5031974;28;45332;-81
2023/08/23 09:10:35;;;;;;;;;7.00;4.00;;;;;;;;5048511;28;45354;-80
2023/08/23 09:13:01;;;;;;;;;6.00;3.50;;;;;;;;5053949;28;45505;-82
2023/08/23 09:15:26;;;;;;;;;2.50;2.25;;;;;;;;5036672;28;45348;-81
2023/08/23 09:17:54;;;;;;;;;6.25;4.75;;;;;;;;5042649;28;45579;-83
2023/08/23 09:20:20;;;;;;;;;3.25;2.50;;;;;;;;5056041;28;45549;-80
2023/08/23 09:22:49;;;;;;;;;7.00;4.50;;;;;;;;5037584;28;45637;-81
2023/08/23 09:25:15;;;;;;;;;2.75;2.75;;;;;;;;5050685;28;45506;-80
2023/08/23 09:27:41;;;;;;;;;4.25;4.25;;;;;;;;5054092;28;45580;-82
2023/08/23 09:30:06;;;;;;;;;3.25;3.25;;;;;;;;5034926;28;47031;-81
2023/08/23 09:32:31;;;;;;;;;3.50;3.50;;;;;;;;5066128;28;45743;-81
2023/08/23 09:34:57;;;;;;;;;3.75;3.75;;;;;;;;5044326;28;45867;-81
2023/08/23 09:37:22;;;;;;;;;4.50;4.50;;;;;;;;5055271;28;45747;-83
2023/08/23 09:39:48;;;;;;;;;4.00;4.00;;;;;;;;5055650;28;46370;-81
2023/08/23 09:42:13;;;;;;;;;2.75;2.75;;;;;;;;5054108;28;45419;-82
2023/08/23 09:44:40;;;;;;;;;3.00;3.00;;;;;;;;5050374;28;45460;-81
2023/08/23 09:47:07;;;;;;;;;5.25;5.00;;;;;;;;5056069;28;45403;-81
2023/08/23 09:49:33;;;;;;;;;4.75;4.00;;;;;;;;5057548;28;45906;-82
2023/08/23 09:51:59;;;;;;;;;4.00;4.00;;;;;;;;5059408;28;45509;-81
2023/08/23 09:54:29;;;;;;;;;16.50;14.50;;;;;;;;5058918;28;45429;-81
2023/08/23 09:56:55;;;;;;;;;4.00;4.00;;;;;;;;5059697;28;45606;-81
2023/08/23 09:59:20;;;;;;;;;5.75;5.00;;;;;;;;5057596;28;46541;-81
2023/08/23 10:01:46;;;;;;;;;3.00;3.00;;;;;;;;5038373;28;45536;-82
2023/08/23 10:04:12;;;;;;;;;5.75;5.25;;;;;;;;5056895;28;45521;-82
2023/08/23 10:06:38;;;;;;;;;3.00;3.00;;;;;;;;5040360;28;46115;-82
2023/08/23 10:09:04;;;;;;;;;3.00;3.00;;;;;;;;5036574;28;47167;-83
2023/08/23 10:11:30;;;;;;;;;5.75;4.75;;;;;;;;5058543;28;45587;-82
2023/08/23 10:13:57;;;;;;;;;4.00;3.00;;;;;;;;5029429;28;45416;-82
2023/08/23 10:16:24;;;;;;;;;4.00;4.00;;;;;;;;5054842;28;45367;-82
2023/08/23 10:18:50;;;;;;;;;3.50;3.50;;;;;;;;5053377;28;45459;-80
2023/08/23 10:21:16;;;;;;;;;3.75;3.75;;;;;;;;5040879;28;45826;-83
2023/08/23 10:23:41;;;;;;;;;3.00;3.00;;;;;;;;5050617;28;45778;-81
2023/08/23 10:26:16;;;;;;;;;4.75;4.00;;;;;;;;5066665;28;45479;-83
2023/08/23 10:28:48;;;;;;;;;4.25;4.25;;;;;;;;5049875;28;46717;-86
2023/08/23 10:31:14;;;;;;;;;5.00;3.75;;;;;;;;5052034;28;45509;-83
2023/08/23 10:33:39;;;;;;;;;4.00;4.00;;;;;;;;5059463;28;45510;-83
2023/08/23 10:36:05;;;;;;;;;4.25;4.00;;;;;;;;5057857;28;45764;-82
2023/08/23 10:38:30;;;;;;;;;4.50;4.00;;;;;;;;5057982;28;45451;-81
2023/08/23 10:40:59;;;;;;;;;3.50;3.50;;;;;;;;5058225;28;45343;-80
2023/08/23 10:43:24;;;;;;;;;6.00;4.50;;;;;;;;5056952;28;45573;-82
2023/08/23 10:46:02;;;;;;;;;4.00;4.00;;;;;;;;5057671;28;45620;-80
2023/08/23 10:48:27;;;;;;;;;5.50;5.00;;;;;;;;5038819;28;47016;-81
2023/08/23 10:50:55;;;;;;;;;6.50;3.00;;;;;;;;5058016;28;45388;-83
2023/08/23 10:53:21;;;;;;;;;8.00;4.50;;;;;;;;5056613;28;45746;-82
2023/08/23 10:55:47;;;;;;;;;4.00;4.00;;;;;;;;5040675;28;46222;-82
2023/08/23 10:58:13;;;;;;;;;6.00;3.50;;;;;;;;5056604;28;45416;-83
2023/08/23 11:00:40;;;;;;;;;5.00;5.00;;;;;;;;5042174;28;45669;-83
2023/08/23 11:03:06;;;;;;;;;6.00;4.00;;;;;;;;5027437;28;45777;-81
2023/08/23 11:05:31;;;;;;;;;5.00;5.00;;;;;;;;5040109;28;45703;-82
2023/08/23 11:07:57;;;;;;;;;3.25;3.25;;;;;;;;5057947;28;45862;-84
2023/08/23 11:10:23;;;;;;;;;5.75;5.75;;;;;;;;5030555;28;45377;-82
2023/08/23 11:12:49;;;;;;;;;3.00;3.00;;;;;;;;5038299;28;45775;-81
2023/08/23 11:15:14;;;;;;;;;6.75;6.75;;;;;;;;5057942;28;45669;-82
2023/08/23 11:17:39;;;;;;;;;4.75;4.75;;;;;;;;5068988;28;45804;-81
2023/08/23 11:20:05;;;;;;;;;6.75;5.00;;;;;;;;5057187;28;45799;-84
2023/08/23 11:22:30;;;;;;;;;4.75;4.75;;;;;;;;5055000;28;45438;-82
2023/08/23 11:24:57;;;;;;;;;4.25;4.00;;;;;;;;5056119;28;45400;-82
2023/08/23 11:27:22;;;;;;;;;6.25;4.25;;;;;;;;5057637;28;46746;-83
2023/08/23 11:29:48;;;;;;;;;4.00;4.00;;;;;;;;5054487;28;45554;-80
2023/08/23 11:32:13;;;;;;;;;6.75;4.00;;;;;;;;5041189;28;45580;-81
2023/08/23 11:34:38;;;;;;;;;5.75;4.00;;;;;;;;5059602;28;45795;-83
2023/08/23 11:37:07;;;;;;;;;6.00;5.75;;;;;;;;5056387;28;46592;-83
2023/08/23 11:39:33;;;;;;;;;3.75;3.75;;;;;;;;5052167;28;45419;-82
2023/08/23 11:41:58;;;;;;;;;5.25;5.25;;;;;;;;5070630;28;45520;-82
2023/08/23 11:44:26;;;;;;;;;7.25;5.50;;;;;;;;5055855;28;45696;-81
2023/08/23 11:46:52;;;;;;;;;7.50;6.50;;;;;;;;5039349;28;47207;-83
2023/08/23 11:49:18;;;;;;;;;7.00;4.75;;;;;;;;5056261;28;45577;-82
2023/08/23 11:51:44;;;;;;;;;5.75;5.50;;;;;;;;5057283;28;45572;-83
2023/08/23 11:54:10;;;;;;;;;10.75;6.00;;;;;;;;5046480;28;45509;-82
2023/08/23 11:56:38;;;;;;;;;3.75;3.75;;;;;;;;5047502;28;45532;-83
2023/08/23 11:59:03;;;;;;;;;7.00;7.00;;;;;;;;5037707;28;45496;-82
2023/08/23 12:01:29;;;;;;;;;13.00;12.25;;;;;;;;5042635;28;45450;-81
2023/08/23 12:03:55;;;;;;;;;7.25;5.25;;;;;;;;5038363;28;46103;-83
2023/08/23 12:06:20;;;;;;;;;6.25;5.25;;;;;;;;5039609;28;47318;-83
2023/08/23 12:08:46;;;;;;;;;8.25;5.75;;;;;;;;5038107;28;46033;-81
2023/08/23 12:11:11;;;;;;;;;7.50;5.75;;;;;;;;5068780;28;45494;-80
2023/08/23 12:13:37;;;;;;;;;6.00;6.00;;;;;;;;5038815;28;46232;-84
2023/08/23 12:16:02;;;;;;;;;7.25;6.50;;;;;;;;5040232;28;47381;-82
2023/08/23 12:18:28;;;;;;;;;4.00;1.25;;;;;;;;5056925;28;45467;-83
2023/08/23 12:20:53;;;;;;;;;5.25;5.00;;;;;;;;5057365;28;45413;-82
2023/08/23 12:23:18;;;;;;;;;6.00;6.00;;;;;;;;5067401;28;45534;-81
2023/08/23 12:25:43;;;;;;;;;5.75;3.75;;;;;;;;5060825;28;46361;-81
2023/08/23 12:28:09;;;;;;;;;8.75;7.75;;;;;;;;5056323;28;45489;-80
2023/08/23 12:30:34;;;;;;;;;6.50;6.00;;;;;;;;5057451;28;45126;-81
2023/08/23 12:32:59;;;;;;;;;8.25;7.00;;;;;;;;5050510;28;45394;-83
2023/08/23 12:35:24;;;;;;;;;7.25;7.25;;;;;;;;5053019;28;45655;-83
2023/08/23 12:37:50;;;;;;;;;5.50;5.50;;;;;;;;5048165;28;45322;-82
2023/08/23 12:40:15;;;;;;;;;10.75;7.75;;;;;;;;5035223;28;45497;-82
2023/08/23 12:42:40;;;;;;;;;9.25;8.25;;;;;;;;5057142;28;45477;-83
2023/08/23 12:45:06;;;;;;;;;4.25;4.00;;;;;;;;5037980;28;46897;-82
2023/08/23 12:47:31;;;;;;;;;9.25;7.00;;;;;;;;5037527;28;45939;-84
2023/08/23 12:49:56;;;;;;;;;8.50;7.25;;;;;;;;5038153;28;45502;-83
2023/08/23 12:52:21;;;;;;;;;5.00;5.00;;;;;;;;5056536;28;45304;-82
2023/08/23 12:54:47;;;;;;;;;8.25;6.25;;;;;;;;5055692;28;46423;-83
2023/08/23 12:57:12;;;;;;;;;10.50;9.00;;;;;;;;5051138;28;45347;-84
2023/08/23 12:59:37;;;;;;;;;10.25;7.25;;;;;;;;5056852;28;45340;-84
2023/08/23 13:02:03;;;;;;;;;6.50;6.50;;;;;;;;5059154;28;45390;-83
2023/08/23 13:04:28;;;;;;;;;7.50;7.00;;;;;;;;5034340;28;46040;-82
2023/08/23 13:06:54;;;;;;;;;8.00;7.00;;;;;;;;5046187;28;45651;-85
2023/08/23 13:09:20;;;;;;;;;8.00;6.75;;;;;;;;5057029;28;45646;-82
2023/08/23 13:11:45;;;;;;;;;8.75;7.00;;;;;;;;5054563;28;45595;-83
2023/08/23 13:14:10;;;;;;;;;8.25;7.00;;;;;;;;5055914;28;45464;-82
2023/08/23 13:16:35;;;;;;;;;9.00;7.25;;;;;;;;5036991;28;45344;-84
2023/08/23 13:19:01;;;;;;;;;7.50;6.00;;;;;;;;5037800;28;45389;-84
2023/08/23 13:21:26;;;;;;;;;7.25;7.25;;;;;;;;5055413;28;45317;-84
2023/08/23 13:23:51;;;;;;;;;8.00;6.25;;;;;;;;5028435;28;46468;-82
2023/08/23 13:26:17;;;;;;;;;6.75;6.75;;;;;;;;5058355;28;45770;-83
2023/08/23 13:28:42;;;;;;;;;8.25;8.00;;;;;;;;5059107;28;45922;-83
2023/08/23 13:31:07;;;;;;;;;6.25;6.25;;;;;;;;5059943;28;45517;-83
2023/08/23 13:33:33;;;;;;;;;5.50;4.00;;;;;;;;5055480;28;46691;-84
2023/08/23 13:35:59;;;;;;;;;8.75;7.00;;;;;;;;5058814;28;45457;-83
2023/08/23 13:38:24;;;;;;;;;7.75;6.00;;;;;;;;5040551;28;45458;-84
2023/08/23 13:40:49;;;;;;;;;7.00;7.00;;;;;;;;5040605;28;47010;-82
2023/08/23 13:43:14;;;;;;;;;9.50;7.50;;;;;;;;5040270;28;47361;-84
2023/08/23 13:45:43;;;;;;;;;7.75;6.50;;;;;;;;5040832;28;45324;-85
2023/08/23 13:48:08;;;;;;;;;6.75;6.75;;;;;;;;5041081;28;45598;-84
2023/08/23 13:50:33;;;;;;;;;8.25;6.50;;;;;;;;5059133;28;45352;-84
2023/08/23 13:52:58;;;;;;;;;7.00;7.00;;;;;;;;5058225;28;45910;-82
2023/08/23 13:55:26;;;;;;;;;7.00;7.00;;;;;;;;5059216;28;45506;-84
2023/08/23 13:57:52;;;;;;;;;8.25;8.25;;;;;;;;5040007;28;45778;-82
2023/08/23 14:00:17;;;;;;;;;11.25;8.00;;;;;;;;5039982;28;46120;-81
2023/08/23 14:02:42;;;;;;;;;5.75;5.75;;;;;;;;5043410;28;48287;-82
2023/08/23 14:05:07;;;;;;;;;6.75;6.75;;;;;;;;5058496;28;45521;-82
2023/08/23 14:07:33;;;;;;;;;8.00;7.00;;;;;;;;5040676;28;45689;-82
2023/08/23 14:09:58;;;;;;;;;9.75;9.75;;;;;;;;5032349;28;46161;-83
2023/08/23 14:12:23;;;;;;;;;11.75;8.50;;;;;;;;5051182;28;45471;-82
2023/08/23 14:14:48;;;;;;;;;9.00;9.00;;;;;;;;5053608;28;45351;-83
2023/08/23 14:17:14;;;;;;;;;11.50;8.50;;;;;;;;5035099;28;45604;-83
2023/08/23 14:19:43;;;;;;;;;7.25;7.25;;;;;;;;5058172;28;45487;-84
2023/08/23 14:22:08;;;;;;;;;9.00;9.00;;;;;;;;5058231;28;45455;-82
2023/08/23 14:24:33;;;;;;;;;8.00;7.00;;;;;;;;5039821;28;45370;-82
2023/08/23 14:26:58;;;;;;;;;7.75;7.75;;;;;;;;5058434;28;45368;-83
2023/08/23 14:29:24;;;;;;;;;6.00;6.00;;;;;;;;5039513;28;47571;-83
2023/08/23 14:31:49;;;;;;;;;6.75;6.75;;;;;;;;5040106;28;47193;-81
2023/08/23 14:34:14;;;;;;;;;7.00;5.75;;;;;;;;5056540;28;45628;-82